Time;durP1;ratioP1;P1;durP2;ratioP2;P2;SDS_P1;SDS_P2;PMS_P1;PMS_P2;Temp;Humidity;BMP_temperature;BMP_pressure;BME280_temperature;BME280_humidity;BME280_pressure;Samples;Min_cycle;Max_cycle;Signal;HPM_P1;HPM_P2
2023/12/19 00:00:11;;;;;;;6.95;2.00;;;11.00;99.90;;;;;;5148329;27;20030;-49
2023/12/19 00:02:37;;;;;;;9.23;3.23;;;11.00;99.90;;;;;;5149446;27;20147;-50
2023/12/19 00:05:03;;;;;;;6.78;2.33;;;11.00;99.90;;;;;;5149504;27;20273;-49
2023/12/19 00:07:29;;;;;;;6.32;2.40;;;11.10;99.90;;;;;;5148950;27;20300;-52
2023/12/19 00:09:55;;;;;;;5.28;2.15;;;11.10;99.90;;;;;;5149290;27;20035;-46
2023/12/19 00:12:21;;;;;;;4.28;2.05;;;11.10;99.90;;;;;;5148326;27;20294;-46
2023/12/19 00:14:46;;;;;;;6.30;1.95;;;11.20;99.90;;;;;;5149108;27;20015;-47
2023/12/19 00:17:12;;;;;;;3.95;1.70;;;11.20;99.90;;;;;;5149137;27;20035;-46
2023/12/19 00:19:38;;;;;;;8.65;3.40;;;11.10;99.90;;;;;;5148986;27;20057;-47
2023/12/19 00:22:04;;;;;;;4.85;1.92;;;11.00;99.90;;;;;;5147864;27;20027;-46
2023/12/19 00:24:29;;;;;;;4.70;1.98;;;11.00;99.90;;;;;;5149085;27;20062;-47
2023/12/19 00:26:55;;;;;;;9.35;2.85;;;10.90;99.90;;;;;;5148975;27;20034;-47
2023/12/19 00:29:20;;;;;;;5.65;2.10;;;10.90;99.90;;;;;;5147774;27;20023;-47
2023/12/19 00:31:46;;;;;;;11.30;3.28;;;11.00;99.90;;;;;;5147892;27;20035;-48
2023/12/19 00:34:13;;;;;;;6.55;2.38;;;11.00;99.90;;;;;;5148929;27;20287;-49
2023/12/19 00:36:39;;;;;;;6.78;2.50;;;11.00;99.90;;;;;;5148912;27;20300;-49
2023/12/19 00:39:05;;;;;;;5.50;1.95;;;11.00;99.90;;;;;;5148537;27;20039;-47
2023/12/19 00:41:30;;;;;;;6.72;2.00;;;11.00;99.90;;;;;;5148492;27;20043;-48
2023/12/19 00:43:56;;;;;;;5.40;2.42;;;10.90;99.90;;;;;;5148725;27;20019;-47
2023/12/19 00:46:22;;;;;;;7.68;2.00;;;10.90;99.90;;;;;;5148664;27;20038;-48
2023/12/19 00:48:47;;;;;;;4.18;1.95;;;10.90;99.90;;;;;;5148234;27;20015;-50
2023/12/19 00:51:13;;;;;;;4.22;2.00;;;10.80;99.90;;;;;;5148504;27;20038;-49
2023/12/19 00:53:39;;;;;;;5.82;2.10;;;10.80;99.90;;;;;;5148371;27;20043;-48
2023/12/19 00:56:07;;;;;;;5.25;2.00;;;10.70;99.90;;;;;;5147599;27;20087;-49
2023/12/19 00:58:33;;;;;;;6.60;2.30;;;10.70;99.90;;;;;;5147933;27;20023;-49
2023/12/19 01:00:59;;;;;;;7.80;2.30;;;10.70;99.90;;;;;;5147959;27;20043;-49
2023/12/19 01:03:25;;;;;;;5.57;2.08;;;10.80;99.90;;;;;;5147492;27;20230;-49
2023/12/19 01:05:50;;;;;;;6.68;1.50;;;10.80;99.90;;;;;;5148186;27;20180;-50
2023/12/19 01:08:16;;;;;;;8.93;2.20;;;10.80;99.90;;;;;;5147708;27;20058;-49
2023/12/19 01:10:42;;;;;;;8.02;3.03;;;10.80;99.90;;;;;;5148210;27;20076;-47
2023/12/19 01:13:07;;;;;;;4.75;1.80;;;10.80;99.90;;;;;;5148256;27;20090;-48
2023/12/19 01:15:33;;;;;;;5.32;1.70;;;10.70;99.90;;;;;;5148155;27;20039;-48
2023/12/19 01:17:58;;;;;;;4.38;1.83;;;10.70;99.90;;;;;;5147534;27;20023;-49
2023/12/19 01:20:24;;;;;;;11.45;2.35;;;10.80;99.90;;;;;;5147826;27;20063;-48
2023/12/19 01:22:50;;;;;;;8.35;2.65;;;10.80;99.90;;;;;;5146982;27;20035;-47
2023/12/19 01:25:15;;;;;;;5.35;2.03;;;10.80;99.90;;;;;;5147995;27;20158;-47
2023/12/19 01:27:41;;;;;;;4.03;1.98;;;10.80;99.90;;;;;;5147648;27;20037;-47
2023/12/19 01:30:07;;;;;;;8.43;2.40;;;10.90;99.90;;;;;;5146661;27;20257;-47
2023/12/19 01:32:33;;;;;;;12.27;3.03;;;10.90;99.90;;;;;;5147246;27;20076;-47
2023/12/19 01:34:59;;;;;;;7.18;2.67;;;11.00;99.90;;;;;;5147764;27;20327;-50
2023/12/19 01:37:24;;;;;;;8.75;2.88;;;11.00;99.90;;;;;;5147598;27;20030;-50
2023/12/19 01:39:50;;;;;;;11.80;3.38;;;11.00;99.90;;;;;;5146999;27;20184;-47
2023/12/19 01:42:16;;;;;;;10.70;3.13;;;11.00;99.90;;;;;;5147058;27;20019;-47
2023/12/19 01:44:41;;;;;;;17.20;3.70;;;11.00;99.90;;;;;;5146945;27;20034;-49
2023/12/19 01:47:07;;;;;;;9.43;3.40;;;11.10;99.90;;;;;;5147431;27;20027;-47
2023/12/19 01:49:33;;;;;;;14.93;3.80;;;11.10;99.90;;;;;;5147262;27;20053;-49
2023/12/19 01:51:58;;;;;;;13.10;4.60;;;11.10;99.90;;;;;;5147304;27;20049;-48
2023/12/19 01:54:24;;;;;;;16.02;4.70;;;11.10;99.90;;;;;;5146271;27;20327;-47
2023/12/19 01:56:49;;;;;;;15.55;5.55;;;11.10;99.90;;;;;;5147002;27;20034;-47
2023/12/19 01:59:15;;;;;;;14.65;4.47;;;11.10;99.90;;;;;;5146066;27;20031;-48
2023/12/19 02:01:41;;;;;;;12.63;4.72;;;11.00;99.90;;;;;;5146280;27;20031;-50
2023/12/19 02:04:07;;;;;;;13.70;5.15;;;11.00;99.90;;;;;;5146049;27;20027;-48
2023/12/19 02:06:36;;;;;;;18.55;6.00;;;11.00;99.90;;;;;;5146214;27;20050;-47
2023/12/19 02:09:01;;;;;;;14.80;6.10;;;11.00;99.90;;;;;;5146711;27;20051;-47
2023/12/19 02:11:28;;;;;;;13.40;6.78;;;11.00;99.90;;;;;;5146952;27;20019;-48
2023/12/19 02:13:56;;;;;;;17.90;6.50;;;11.00;99.90;;;;;;5145898;27;20080;-47
2023/12/19 02:16:22;;;;;;;14.02;5.88;;;11.00;99.90;;;;;;5146546;27;20288;-49
2023/12/19 02:19:00;;;;;;;12.45;5.97;;;11.00;99.90;;;;;;5145822;27;20090;-47
2023/12/19 02:21:26;;;;;;;17.33;5.60;;;11.00;99.90;;;;;;5146701;27;20102;-47
2023/12/19 02:23:51;;;;;;;12.65;6.03;;;11.00;99.90;;;;;;5146863;27;20181;-47
2023/12/19 02:26:17;;;;;;;13.80;5.82;;;11.00;99.90;;;;;;5147025;27;20171;-46
2023/12/19 02:28:43;;;;;;;12.10;4.88;;;11.00;99.90;;;;;;5128862;28;20250;-47
2023/12/19 02:31:08;;;;;;;14.57;6.07;;;11.00;99.90;;;;;;5146604;28;20019;-50
2023/12/19 02:33:34;;;;;;;14.63;6.18;;;10.90;99.90;;;;;;5146429;28;20049;-49
2023/12/19 02:36:00;;;;;;;14.75;6.20;;;10.90;99.90;;;;;;5146850;28;20187;-47
2023/12/19 02:38:25;;;;;;;15.55;5.80;;;10.80;99.90;;;;;;5145689;28;20051;-48
2023/12/19 02:40:52;;;;;;;12.35;5.75;;;10.80;99.90;;;;;;5146450;28;20196;-48
2023/12/19 02:43:17;;;;;;;13.35;6.22;;;10.70;99.90;;;;;;5146524;28;20042;-47
2023/12/19 02:45:43;;;;;;;15.77;6.05;;;10.70;99.90;;;;;;5146729;28;20027;-47
2023/12/19 02:48:08;;;;;;;12.70;6.05;;;10.70;99.90;;;;;;5146883;28;20031;-47
2023/12/19 02:50:34;;;;;;;13.98;5.57;;;10.70;99.90;;;;;;5146211;28;20038;-47
2023/12/19 02:53:00;;;;;;;14.40;6.57;;;10.70;99.90;;;;;;5149336;27;20170;-47
2023/12/19 02:55:25;;;;;;;16.65;6.60;;;10.70;99.90;;;;;;5150745;27;20030;-47
2023/12/19 02:57:51;;;;;;;12.52;6.43;;;10.60;99.90;;;;;;5150821;27;20035;-47
2023/12/19 03:00:17;;;;;;;17.02;5.93;;;10.60;99.90;;;;;;5150715;27;20217;-46
2023/12/19 03:02:43;;;;;;;17.63;7.00;;;10.60;99.90;;;;;;5150746;27;20165;-47
2023/12/19 03:05:09;;;;;;;13.63;6.47;;;10.60;99.90;;;;;;5150600;27;20019;-46
2023/12/19 03:07:35;;;;;;;13.65;6.18;;;10.60;99.90;;;;;;5150242;27;20050;-46
2023/12/19 03:10:05;;;;;;;15.77;6.75;;;10.60;99.90;;;;;;5150561;27;20023;-47
2023/12/19 03:12:31;;;;;;;16.70;7.07;;;10.60;99.90;;;;;;5150600;27;20027;-47
2023/12/19 03:14:57;;;;;;;16.60;7.80;;;10.60;99.90;;;;;;5150162;27;20119;-46
2023/12/19 03:17:22;;;;;;;14.25;7.10;;;10.50;99.90;;;;;;5149287;27;20023;-46
2023/12/19 03:19:48;;;;;;;16.10;6.82;;;10.50;99.90;;;;;;5150390;27;20215;-46
2023/12/19 03:22:14;;;;;;;13.07;7.25;;;10.50;99.90;;;;;;5149802;27;20034;-46
2023/12/19 03:24:40;;;;;;;13.27;6.32;;;10.50;99.90;;;;;;5150374;27;20045;-47
2023/12/19 03:27:06;;;;;;;12.82;6.78;;;10.50;99.90;;;;;;5148919;27;20308;-47
2023/12/19 03:29:32;;;;;;;15.65;6.90;;;10.50;99.90;;;;;;5149969;27;20026;-47
2023/12/19 03:31:58;;;;;;;13.70;6.47;;;10.50;99.90;;;;;;5150097;27;20023;-47
2023/12/19 03:34:24;;;;;;;11.57;6.15;;;10.50;99.90;;;;;;5149523;27;20065;-46
2023/12/19 03:36:49;;;;;;;13.20;5.45;;;10.50;99.90;;;;;;5150102;27;20094;-47
2023/12/19 03:39:15;;;;;;;9.90;5.43;;;10.50;99.90;;;;;;5149982;27;20090;-46
2023/12/19 03:41:41;;;;;;;9.30;5.22;;;10.50;99.90;;;;;;5149680;27;20031;-47
2023/12/19 03:44:06;;;;;;;11.85;5.03;;;10.50;99.90;;;;;;5149815;27;20015;-47
2023/12/19 03:46:32;;;;;;;13.02;5.15;;;10.50;99.90;;;;;;5148869;27;20076;-47
2023/12/19 03:48:58;;;;;;;9.55;4.70;;;10.50;99.90;;;;;;5131734;27;20162;-48
2023/12/19 03:51:23;;;;;;;12.48;5.00;;;10.50;99.90;;;;;;5149550;27;20047;-49
2023/12/19 03:53:49;;;;;;;10.43;4.30;;;10.50;99.90;;;;;;5149583;27;20031;-47
2023/12/19 03:56:15;;;;;;;8.20;3.72;;;10.50;99.90;;;;;;5149731;27;20043;-47
2023/12/19 03:58:40;;;;;;;8.15;3.83;;;10.50;99.90;;;;;;5149642;27;20041;-47
2023/12/19 04:01:06;;;;;;;8.65;3.88;;;10.50;99.90;;;;;;5148653;27;20027;-50
2023/12/19 04:03:32;;;;;;;11.90;4.18;;;10.50;99.90;;;;;;5148177;27;20333;-48
2023/12/19 04:05:57;;;;;;;13.13;4.30;;;10.50;99.90;;;;;;5149186;27;20026;-47
2023/12/19 04:08:23;;;;;;;9.98;3.88;;;10.50;99.90;;;;;;5148026;27;20050;-47
2023/12/19 04:10:49;;;;;;;11.05;4.40;;;10.50;99.90;;;;;;5149089;27;20050;-47
2023/12/19 04:13:14;;;;;;;11.40;4.07;;;10.50;99.90;;;;;;5149493;27;20082;-47
2023/12/19 04:15:40;;;;;;;9.98;4.00;;;10.50;99.90;;;;;;5149341;27;20030;-47
2023/12/19 04:18:06;;;;;;;11.43;3.70;;;10.50;99.90;;;;;;5148088;27;20027;-47
2023/12/19 04:20:31;;;;;;;13.80;4.68;;;10.50;99.90;;;;;;5149171;27;20042;-47
2023/12/19 04:22:57;;;;;;;9.65;3.60;;;10.50;99.90;;;;;;5148258;27;20391;-47
2023/12/19 04:25:22;;;;;;;8.75;3.58;;;10.50;99.90;;;;;;5149097;27;20197;-50
2023/12/19 04:27:48;;;;;;;10.10;3.88;;;10.60;99.90;;;;;;5149055;27;20019;-47
2023/12/19 04:30:14;;;;;;;10.90;4.38;;;10.60;99.90;;;;;;5149043;27;20031;-48
2023/12/19 04:32:40;;;;;;;7.18;3.63;;;10.60;99.90;;;;;;5148979;27;20019;-48
2023/12/19 04:35:06;;;;;;;8.68;3.45;;;10.50;99.90;;;;;;5148867;27;20019;-48
2023/12/19 04:37:32;;;;;;;13.43;4.28;;;10.60;99.90;;;;;;5147524;27;20065;-47
2023/12/19 04:39:58;;;;;;;10.57;3.60;;;10.60;99.90;;;;;;5148874;27;20188;-47
2023/12/19 04:42:24;;;;;;;11.05;3.90;;;10.60;99.90;;;;;;5147718;27;20043;-49
2023/12/19 04:44:49;;;;;;;12.52;3.75;;;10.60;99.90;;;;;;5148612;27;20295;-50
2023/12/19 04:47:15;;;;;;;9.25;4.57;;;10.60;99.90;;;;;;5148567;27;20023;-50
2023/12/19 04:49:42;;;;;;;9.13;4.03;;;10.60;99.90;;;;;;5148465;27;20197;-49
2023/12/19 04:52:08;;;;;;;10.95;4.30;;;10.60;99.90;;;;;;5130293;27;20035;-48
2023/12/19 04:54:33;;;;;;;9.95;3.97;;;10.60;99.90;;;;;;5147497;27;20042;-50
2023/12/19 04:56:59;;;;;;;9.80;4.15;;;10.60;99.90;;;;;;5148388;27;20023;-50
2023/12/19 04:59:24;;;;;;;9.13;4.35;;;10.60;99.90;;;;;;5147269;27;20046;-50
2023/12/19 05:01:50;;;;;;;12.80;4.38;;;10.60;99.90;;;;;;5148296;27;20054;-50
2023/12/19 05:04:16;;;;;;;13.80;4.07;;;10.60;99.90;;;;;;5147354;27;20015;-49
2023/12/19 05:06:42;;;;;;;13.50;4.07;;;10.50;99.90;;;;;;5148297;27;20027;-50
2023/12/19 05:09:08;;;;;;;11.57;4.20;;;10.50;99.90;;;;;;5147623;27;20066;-49
2023/12/19 05:11:34;;;;;;;14.38;4.72;;;10.50;99.90;;;;;;5146903;27;20076;-50
2023/12/19 05:13:59;;;;;;;9.85;4.10;;;10.60;99.90;;;;;;5148079;27;20296;-50
2023/12/19 05:16:27;;;;;;;9.00;4.05;;;10.60;99.90;;;;;;5147817;27;20082;-50
2023/12/19 05:18:52;;;;;;;10.40;4.15;;;10.60;99.90;;;;;;5129967;27;20023;-47
2023/12/19 05:21:20;;;;;;;12.20;4.07;;;10.60;99.90;;;;;;5147664;27;20039;-47
2023/12/19 05:23:46;;;;;;;10.55;4.28;;;10.60;99.90;;;;;;5147860;27;20031;-47
2023/12/19 05:26:12;;;;;;;7.20;3.78;;;10.60;99.90;;;;;;5147876;27;20095;-46
2023/12/19 05:28:38;;;;;;;9.52;3.60;;;10.60;99.90;;;;;;5147375;27;20330;-47
2023/12/19 05:31:04;;;;;;;9.60;3.83;;;10.60;99.90;;;;;;5147712;27;20103;-46
2023/12/19 05:33:30;;;;;;;12.48;4.03;;;10.60;99.90;;;;;;5147451;27;20269;-47
2023/12/19 05:35:56;;;;;;;8.60;3.85;;;10.60;99.90;;;;;;5147896;27;20023;-47
2023/12/19 05:38:21;;;;;;;11.07;5.65;;;10.60;99.90;;;;;;5147645;27;20038;-46
2023/12/19 05:40:47;;;;;;;9.77;4.20;;;10.60;99.90;;;;;;5147314;27;20031;-50
2023/12/19 05:43:13;;;;;;;10.55;3.67;;;10.60;99.90;;;;;;5147340;27;20042;-50
2023/12/19 05:45:39;;;;;;;5.28;3.35;;;10.60;99.90;;;;;;5147605;27;20049;-47
2023/12/19 05:48:05;;;;;;;11.25;3.50;;;10.60;99.90;;;;;;5147589;27;20043;-50
2023/12/19 05:50:31;;;;;;;4.75;2.80;;;10.60;99.90;;;;;;5146372;27;20066;-49
2023/12/19 05:52:57;;;;;;;10.05;3.67;;;10.60;99.90;;;;;;5147263;27;20226;-50
2023/12/19 05:55:23;;;;;;;8.05;3.10;;;10.60;99.90;;;;;;5147452;27;20269;-50
2023/12/19 05:57:49;;;;;;;8.13;2.85;;;10.50;99.90;;;;;;5147186;27;20046;-50
2023/12/19 06:00:15;;;;;;;6.07;2.90;;;10.50;99.90;;;;;;5145957;27;20280;-50
2023/12/19 06:02:41;;;;;;;7.53;2.53;;;10.50;99.90;;;;;;5147128;27;20087;-48
2023/12/19 06:05:07;;;;;;;9.38;2.95;;;10.50;99.90;;;;;;5146503;27;20038;-48
2023/12/19 06:07:40;;;;;;;7.55;2.95;;;10.50;99.90;;;;;;5146679;27;20072;-47
2023/12/19 06:10:09;;;;;;;7.85;2.67;;;10.40;99.90;;;;;;5146234;27;20086;-47
2023/12/19 06:12:35;;;;;;;7.95;2.53;;;10.40;99.90;;;;;;5145892;27;20050;-46
2023/12/19 06:15:02;;;;;;;8.98;2.75;;;10.40;99.90;;;;;;5111660;27;20343;-46
2023/12/19 06:17:28;;;;;;;7.97;3.05;;;10.40;99.90;;;;;;5146872;27;20019;-47
2023/12/19 06:19:54;;;;;;;6.78;2.33;;;10.40;99.90;;;;;;5146887;27;20219;-46
2023/12/19 06:22:20;;;;;;;7.88;2.40;;;10.40;99.90;;;;;;5146766;27;20278;-47
2023/12/19 06:24:45;;;;;;;8.43;2.85;;;10.40;99.90;;;;;;5146586;27;20067;-47
2023/12/19 06:27:15;;;;;;;7.95;2.50;;;10.40;99.90;;;;;;5146119;27;20035;-47
2023/12/19 06:29:42;;;;;;;9.57;3.20;;;10.40;99.90;;;;;;5146642;27;20022;-46
2023/12/19 06:32:10;;;;;;;8.38;2.85;;;10.30;99.90;;;;;;5146330;28;20031;-47
2023/12/19 06:34:36;;;;;;;7.95;2.97;;;10.40;99.90;;;;;;5146762;28;20180;-47
2023/12/19 06:37:02;;;;;;;8.30;3.28;;;10.40;99.90;;;;;;5146378;28;20034;-47
2023/12/19 06:39:28;;;;;;;10.82;3.70;;;10.40;99.90;;;;;;5146589;28;20015;-46
2023/12/19 06:41:54;;;;;;;7.30;3.08;;;10.40;99.90;;;;;;5146547;28;20039;-47
2023/12/19 06:44:20;;;;;;;6.85;3.35;;;10.40;99.90;;;;;;5145300;28;20303;-46
2023/12/19 06:46:46;;;;;;;6.28;1.80;;;10.40;99.90;;;;;;5146316;28;20080;-47
2023/12/19 06:49:22;;;;;;;2.95;1.50;;;10.30;99.90;;;;;;5146586;28;20258;-47
2023/12/19 06:51:47;;;;;;;6.25;1.50;;;10.30;99.90;;;;;;5146936;28;20024;-47
2023/12/19 06:54:13;;;;;;;2.85;1.08;;;10.20;99.90;;;;;;5145589;28;20365;-46
2023/12/19 06:56:39;;;;;;;1.58;0.88;;;10.20;99.90;;;;;;5146614;28;20043;-47
2023/12/19 06:59:08;;;;;;;5.00;1.00;;;10.10;99.90;;;;;;5146209;28;20083;-47
2023/12/19 07:01:34;;;;;;;4.97;1.20;;;10.00;99.90;;;;;;5146291;28;20365;-47
2023/12/19 07:03:59;;;;;;;2.13;0.80;;;10.00;99.90;;;;;;5145384;28;20023;-47
2023/12/19 07:06:25;;;;;;;2.97;0.80;;;9.90;99.90;;;;;;5146598;28;20027;-46
2023/12/19 07:08:51;;;;;;;1.25;0.70;;;9.90;99.90;;;;;;5145940;28;20051;-47
2023/12/19 07:11:17;;;;;;;3.17;0.85;;;9.90;99.90;;;;;;5146251;28;20035;-46
2023/12/19 07:13:43;;;;;;;0.88;0.60;;;9.80;99.90;;;;;;5146361;28;20071;-47
2023/12/19 07:16:18;;;;;;;1.42;0.82;;;9.80;99.90;;;;;;5146036;28;20270;-47
2023/12/19 07:18:44;;;;;;;2.58;0.70;;;9.80;99.90;;;;;;5146269;28;20141;-46
2023/12/19 07:21:23;;;;;;;1.98;0.90;;;9.70;99.90;;;;;;5145178;28;20288;-47
2023/12/19 07:23:50;;;;;;;2.72;1.00;;;9.70;99.90;;;;;;5145193;28;20034;-47
2023/12/19 07:26:26;;;;;;;1.08;0.80;;;9.60;99.90;;;;;;5145340;28;20023;-50
2023/12/19 07:28:52;;;;;;;2.70;0.93;;;9.60;99.90;;;;;;5145884;28;20019;-50
2023/12/19 07:31:23;;;;;;;5.22;1.27;;;9.60;99.90;;;;;;5144957;28;20035;-50
2023/12/19 07:33:50;;;;;;;3.80;0.90;;;9.60;99.90;;;;;;5146140;28;20027;-49
2023/12/19 07:36:16;;;;;;;5.13;1.10;;;9.60;99.90;;;;;;5145813;27;20162;-50
2023/12/19 07:38:42;;;;;;;7.80;1.33;;;9.50;99.90;;;;;;5148337;27;20088;-50
2023/12/19 07:41:07;;;;;;;5.53;1.13;;;9.50;99.90;;;;;;5149527;27;20046;-49
2023/12/19 07:43:33;;;;;;;6.53;1.30;;;9.60;99.90;;;;;;5149596;27;20033;-47
2023/12/19 07:45:59;;;;;;;2.50;1.15;;;9.50;99.90;;;;;;5149692;27;20027;-46
2023/12/19 07:48:24;;;;;;;6.35;1.20;;;9.50;99.90;;;;;;5149679;27;20075;-48
2023/12/19 07:50:50;;;;;;;5.18;0.93;;;9.50;99.90;;;;;;5149801;27;20273;-48
2023/12/19 07:53:16;;;;;;;4.07;1.30;;;9.40;99.90;;;;;;5149562;27;20038;-51
2023/12/19 07:55:41;;;;;;;5.82;0.98;;;9.40;99.90;;;;;;5149456;27;20054;-52
2023/12/19 07:58:07;;;;;;;8.57;1.58;;;9.40;99.90;;;;;;5149473;27;20054;-52
2023/12/19 08:00:33;;;;;;;6.40;1.70;;;9.40;99.90;;;;;;5149130;27;20079;-50
2023/12/19 08:02:59;;;;;;;9.13;1.33;;;9.30;99.90;;;;;;5149404;27;20031;-51
2023/12/19 08:05:24;;;;;;;10.40;1.80;;;9.30;99.90;;;;;;5149161;27;20092;-49
2023/12/19 08:07:50;;;;;;;6.90;1.40;;;9.30;99.90;;;;;;5147944;27;20054;-48
2023/12/19 08:10:16;;;;;;;6.95;1.30;;;9.30;99.90;;;;;;5149159;27;20132;-49
2023/12/19 08:12:41;;;;;;;6.25;1.58;;;9.20;99.90;;;;;;5149237;27;20088;-49
2023/12/19 08:15:10;;;;;;;4.03;1.02;;;9.20;99.90;;;;;;5148926;27;20031;-49
2023/12/19 08:17:37;;;;;;;6.47;1.10;;;9.20;99.90;;;;;;5148176;27;20226;-50
2023/12/19 08:20:03;;;;;;;6.88;2.15;;;9.20;99.90;;;;;;5149079;27;20195;-50
2023/12/19 08:22:29;;;;;;;5.85;1.52;;;9.20;99.90;;;;;;5148602;27;20053;-49
2023/12/19 08:24:54;;;;;;;3.63;1.65;;;9.20;99.90;;;;;;5147860;27;20023;-49
2023/12/19 08:27:23;;;;;;;7.85;1.95;;;9.30;99.90;;;;;;5148729;27;20039;-48
2023/12/19 08:29:49;;;;;;;4.63;1.30;;;9.30;99.90;;;;;;5148770;27;20018;-47
2023/12/19 08:32:15;;;;;;;4.28;1.10;;;9.30;99.90;;;;;;5147545;27;20230;-47
2023/12/19 08:34:41;;;;;;;8.85;1.60;;;9.30;99.90;;;;;;5148252;27;20039;-47
2023/12/19 08:37:06;;;;;;;4.68;1.75;;;9.30;99.90;;;;;;5147876;27;20027;-47
2023/12/19 08:39:32;;;;;;;4.88;1.40;;;9.20;99.90;;;;;;5147386;27;20031;-47
2023/12/19 08:41:59;;;;;;;6.38;1.63;;;9.20;99.90;;;;;;5148226;27;20031;-46
2023/12/19 08:44:26;;;;;;;6.13;1.85;;;9.30;99.90;;;;;;5148282;27;20098;-48
2023/12/19 08:46:52;;;;;;;8.00;1.60;;;9.30;99.90;;;;;;5148313;27;20165;-47
2023/12/19 08:49:18;;;;;;;10.02;2.47;;;9.30;99.90;;;;;;5147515;27;20081;-48
2023/12/19 08:51:47;;;;;;;5.22;1.20;;;9.30;99.90;;;;;;5147590;27;20019;-49
2023/12/19 08:54:13;;;;;;;10.73;1.70;;;9.30;99.90;;;;;;5147649;27;20280;-50
2023/12/19 08:56:38;;;;;;;8.88;1.38;;;9.30;99.90;;;;;;5146998;27;20039;-50
2023/12/19 08:59:04;;;;;;;5.85;1.40;;;9.30;99.90;;;;;;5147918;27;20065;-50
2023/12/19 09:01:30;;;;;;;7.18;1.48;;;9.30;99.90;;;;;;5146699;27;20023;-48
2023/12/19 09:03:56;;;;;;;7.68;1.25;;;9.30;99.90;;;;;;5146852;27;20034;-50
2023/12/19 09:06:21;;;;;;;6.53;1.15;;;9.30;99.90;;;;;;5148020;27;20034;-50
2023/12/19 09:08:47;;;;;;;6.88;1.58;;;9.30;99.90;;;;;;5147332;27;20047;-49
2023/12/19 09:11:13;;;;;;;6.68;1.55;;;9.30;99.90;;;;;;5147542;27;20092;-50
2023/12/19 09:13:40;;;;;;;7.68;1.50;;;9.30;99.90;;;;;;5147691;27;20293;-50
2023/12/19 09:16:06;;;;;;;14.77;1.90;;;9.30;99.90;;;;;;5146263;27;20015;-48
2023/12/19 09:18:32;;;;;;;6.75;1.40;;;9.30;99.90;;;;;;5146672;27;20080;-50
2023/12/19 09:20:58;;;;;;;12.07;1.45;;;9.30;99.90;;;;;;5147150;27;20056;-51
2023/12/19 09:23:23;;;;;;;12.57;1.60;;;9.30;99.90;;;;;;5147276;27;20031;-50
2023/12/19 09:25:49;;;;;;;10.07;2.40;;;9.30;99.90;;;;;;5146315;27;20031;-49
2023/12/19 09:28:15;;;;;;;12.68;2.05;;;9.30;99.90;;;;;;5147617;27;20023;-50
2023/12/19 09:30:40;;;;;;;11.13;2.03;;;9.30;99.90;;;;;;5147456;27;20150;-47
2023/12/19 09:33:06;;;;;;;7.18;1.70;;;9.30;99.90;;;;;;5147280;27;20042;-47
2023/12/19 09:35:32;;;;;;;9.77;1.50;;;9.20;99.90;;;;;;5147360;27;20056;-47
2023/12/19 09:38:01;;;;;;;10.32;2.20;;;9.20;99.90;;;;;;5147044;27;20023;-47
2023/12/19 09:40:29;;;;;;;13.75;1.70;;;9.20;99.90;;;;;;5145702;27;20027;-49
2023/12/19 09:42:55;;;;;;;7.20;1.30;;;9.30;99.90;;;;;;5147146;27;20019;-50
2023/12/19 09:45:22;;;;;;;7.90;2.30;;;9.30;99.90;;;;;;5128868;27;20272;-50
2023/12/19 09:48:08;;;;;;;11.52;1.98;;;9.30;99.90;;;;;;5146854;27;20035;-50
2023/12/19 09:50:36;;;;;;;10.13;1.55;;;9.20;99.90;;;;;;5146967;27;20303;-51
2023/12/19 09:53:07;;;;;;;7.80;1.30;;;9.20;99.90;;;;;;5146205;27;20045;-50
2023/12/19 09:55:33;;;;;;;10.20;3.35;;;9.20;99.90;;;;;;5145968;27;20023;-51
2023/12/19 09:57:58;;;;;;;8.25;1.70;;;9.20;99.90;;;;;;5146915;27;20068;-49
2023/12/19 10:00:25;;;;;;;6.13;1.67;;;9.20;99.90;;;;;;5145612;27;20095;-50
2023/12/19 10:02:52;;;;;;;10.95;1.60;;;9.30;99.90;;;;;;5144761;27;20025;-51
2023/12/19 10:05:18;;;;;;;8.60;1.33;;;9.30;99.90;;;;;;5128677;27;20045;-50
2023/12/19 10:07:44;;;;;;;10.93;1.90;;;9.20;99.90;;;;;;5146658;27;20038;-51
2023/12/19 10:10:11;;;;;;;11.98;1.90;;;9.20;99.90;;;;;;5146252;27;20340;-51
2023/12/19 10:12:48;;;;;;;16.17;2.25;;;9.20;99.90;;;;;;5146206;27;20011;-51
2023/12/19 10:15:13;;;;;;;8.02;1.92;;;9.10;99.90;;;;;;5145411;27;20031;-51
2023/12/19 10:17:39;;;;;;;8.40;2.10;;;9.10;99.90;;;;;;5146315;27;20027;-51
2023/12/19 10:20:10;;;;;;;6.75;1.83;;;9.00;99.90;;;;;;5145722;27;20189;-51
2023/12/19 10:22:36;;;;;;;7.70;1.80;;;9.00;99.90;;;;;;5146487;27;20039;-52
2023/12/19 10:25:03;;;;;;;8.07;2.00;;;9.00;99.90;;;;;;5146319;27;20033;-51
2023/12/19 10:27:29;;;;;;;7.28;1.63;;;9.00;99.90;;;;;;5146408;27;20082;-49
2023/12/19 10:30:14;;;;;;;10.38;1.83;;;9.00;99.90;;;;;;5128120;27;20027;-52
2023/12/19 10:32:40;;;;;;;6.13;1.90;;;8.90;99.90;;;;;;5145664;27;20241;-49
2023/12/19 10:35:06;;;;;;;14.15;2.88;;;8.80;99.90;;;;;;5146130;28;20023;-52
2023/12/19 10:37:33;;;;;;;17.02;3.15;;;8.70;99.90;;;;;;5146242;28;20015;-48
2023/12/19 10:40:19;;;;;;;7.88;2.03;;;8.70;99.90;;;;;;5145459;28;20044;-52
2023/12/19 10:42:54;;;;;;;8.73;2.72;;;8.70;99.90;;;;;;5145976;28;20052;-51
2023/12/19 10:45:20;;;;;;;14.00;2.35;;;8.70;99.90;;;;;;5146206;28;20040;-50
2023/12/19 10:47:45;;;;;;;8.85;2.42;;;8.70;99.90;;;;;;5145927;28;20095;-50
2023/12/19 10:50:11;;;;;;;11.70;2.72;;;8.70;99.90;;;;;;5145150;28;20050;-48
2023/12/19 10:52:37;;;;;;;15.88;4.05;;;8.80;99.90;;;;;;5145415;28;20042;-46
2023/12/19 10:55:06;;;;;;;11.82;2.42;;;8.80;99.90;;;;;;5128042;28;20023;-50
2023/12/19 10:57:33;;;;;;;10.73;3.70;;;9.00;99.90;;;;;;5145913;28;20050;-50
2023/12/19 11:00:09;;;;;;;8.60;2.15;;;9.20;99.90;;;;;;5144907;28;20027;-50
2023/12/19 11:02:51;;;;;;;10.23;2.58;;;9.40;99.90;;;;;;5146151;28;20053;-50
2023/12/19 11:05:21;;;;;;;8.57;1.90;;;9.50;99.90;;;;;;5145989;28;20086;-50
2023/12/19 11:07:47;;;;;;;;;;;9.60;99.90;;;;;;5144933;28;20107;-50
2023/12/19 11:10:12;;;;;;;9.82;2.03;;;9.70;99.90;;;;;;5145961;28;19918;-50
2023/12/19 11:12:38;;;;;;;4.93;1.70;;;9.60;99.90;;;;;;5146528;27;20031;-50
2023/12/19 11:15:05;;;;;;;6.75;1.50;;;9.50;99.90;;;;;;5148876;27;20038;-50
2023/12/19 11:17:34;;;;;;;9.75;2.40;;;9.50;99.90;;;;;;5148798;27;20026;-51
2023/12/19 11:20:15;;;;;;;10.27;1.70;;;9.40;99.90;;;;;;5149683;27;20023;-50
2023/12/19 11:23:26;;;;;;;11.02;2.13;;;9.40;99.90;;;;;;5132581;27;20058;-49
2023/12/19 11:25:55;;;;;;;7.05;1.40;;;9.40;99.90;;;;;;5137917;27;20099;-50
2023/12/19 11:28:20;;;;;;;10.02;1.70;;;9.40;99.90;;;;;;5148333;27;20034;-49
2023/12/19 11:30:46;;;;;;;9.02;2.10;;;9.50;99.90;;;;;;5149112;27;20205;-50
2023/12/19 11:33:13;;;;;;;9.40;1.85;;;9.50;99.90;;;;;;5149679;27;20027;-50
2023/12/19 11:35:38;;;;;;;6.78;1.83;;;9.60;99.90;;;;;;5149522;27;20039;-50
2023/12/19 11:38:13;;;;;;;9.27;1.77;;;9.70;99.90;;;;;;5148463;27;20023;-51
2023/12/19 11:40:45;;;;;;;8.80;1.50;;;9.80;99.90;;;;;;5149451;27;20088;-50
2023/12/19 11:43:31;;;;;;;10.75;2.55;;;10.00;99.90;;;;;;5148961;27;20054;-49
2023/12/19 11:46:03;;;;;;;12.05;2.53;;;10.10;99.90;;;;;;5138639;27;20060;-50
2023/12/19 11:48:50;;;;;;;10.45;1.85;;;11.40;99.90;;;;;;5148228;27;20029;-50
2023/12/19 11:51:46;;;;;;;8.55;1.95;;;13.30;99.90;;;;;;5148732;27;20347;-51
2023/12/19 11:54:15;;;;;;;7.40;1.60;;;14.60;99.90;;;;;;5136057;27;20110;-48
2023/12/19 11:56:41;;;;;;;5.05;1.30;;;15.70;99.90;;;;;;5149455;27;20090;-48
2023/12/19 11:59:08;;;;;;;8.05;3.05;;;16.40;90.60;;;;;;5147507;27;20038;-50
2023/12/19 12:01:44;;;;;;;9.02;1.55;;;16.70;62.60;;;;;;5148916;27;20044;-48
2023/12/19 12:04:10;;;;;;;7.07;1.60;;;17.20;50.20;;;;;;5148074;27;20033;-50
2023/12/19 12:06:37;;;;;;;9.52;3.33;;;17.30;46.30;;;;;;5147672;27;20225;-49
2023/12/19 12:09:05;;;;;;;7.45;1.98;;;17.40;39.70;;;;;;5148464;27;20109;-51
2023/12/19 12:11:46;;;;;;;7.30;1.80;;;17.70;29.20;;;;;;5147636;27;20081;-52
2023/12/19 12:14:11;;;;;;;6.13;1.45;;;17.30;35.20;;;;;;5147947;27;20091;-51
2023/12/19 12:16:37;;;;;;;10.45;2.28;;;17.40;30.00;;;;;;5148664;27;20035;-49
2023/12/19 12:19:13;;;;;;;6.22;1.73;;;18.00;31.30;;;;;;5147785;27;20137;-51
2023/12/19 12:21:46;;;;;;;5.35;1.80;;;17.70;26.10;;;;;;5130514;27;20300;-51
2023/12/19 12:24:32;;;;;;;6.28;1.90;;;16.50;32.50;;;;;;5146358;27;20069;-50
2023/12/19 12:27:09;;;;;;;7.40;1.58;;;17.30;26.70;;;;;;5147821;27;20280;-50
2023/12/19 12:29:38;;;;;;;6.03;1.48;;;16.60;28.40;;;;;;5147940;27;20084;-51
2023/12/19 12:32:04;;;;;;;6.07;1.60;;;16.20;38.90;;;;;;5147816;27;20099;-50
2023/12/19 12:34:33;;;;;;;6.70;1.40;;;15.80;61.20;;;;;;5147158;27;20030;-50
2023/12/19 12:36:58;;;;;;;8.80;1.50;;;15.80;53.50;;;;;;5148261;27;20288;-50
2023/12/19 12:39:24;;;;;;;10.50;1.70;;;15.00;53.20;;;;;;5147477;27;20067;-51
2023/12/19 12:41:50;;;;;;;8.10;1.52;;;14.40;71.30;;;;;;5148090;27;20082;-52
2023/12/19 12:44:16;;;;;;;9.48;3.05;;;14.90;80.30;;;;;;5148288;27;20099;-48
2023/12/19 12:46:45;;;;;;;8.00;1.55;;;14.30;72.40;;;;;;5148277;27;20031;-50